Belgium, New York
Current Conditions -  °F | °C
As of 6:54 PM on Sunday 23 Nov 2014 (Local Time) from KFZY Reporting Station
Clear Clear  
Wind Chill: 43°   Ceiling: Unl
Heat Index: 46°   Visibility: 10mi
Dew Point: 38°   Wind: 6mph
Humidity: 73%   Direction: 110°ESE
Pressure: 29.91"   Gusts: NA
Location:  43.1825°N, 76.3664°W
Report Text: KFZY 232354Z AUTO 11005KT 10SM CLR 08/03 A2991 RMK AO2 SLP132 60000 T00780033 10111 20078 58021
Loading
Personal Weather Stations






























Interactive Weather Map New forecast layout! Learn more

10-Day Weather Forecast

Advertisements
Track Severe Weather on mobile